Terminal Aerodrome Forecast
Issued by NWS

Home | Current Version | Previous Version | Text Only | Print | Product List | Glossary On
Versions: 1 2 3 4 5 6 7 8
755
FTUS42 KTBW 242330
TAFLAL
TAF
KLAL 242330Z 2500/2524 27013G19KT P6SM BKN050
     FM250200 27006KT P6SM SCT030
     FM250600 VRB04KT P6SM SCT030
     FM251400 28009KT P6SM SCT035 SCT250=

USA.gov is the U.S. government's official web portal to all federal, state and local government web resources and services.